createdAt,value
2023-01-11T00:01:50.462Z,101013.31
2023-01-11T00:06:54.062Z,101010.97
2023-01-11T00:11:57.668Z,101019.41
2023-01-11T00:17:02.741Z,101026.22
2023-01-11T00:22:06.426Z,101023.31
2023-01-11T00:27:10.038Z,101035.69
2023-01-11T00:32:15.073Z,101019.28
2023-01-11T00:37:18.695Z,101031.22
2023-01-11T00:42:39.311Z,101004.47
2023-01-11T00:48:00.839Z,101007.13
2023-01-11T00:53:05.017Z,101016.09
2023-01-11T00:58:08.654Z,101012.25
2023-01-11T01:03:13.442Z,100984.97
2023-01-11T01:08:18.804Z,101017.50
2023-01-11T01:13:39.436Z,101013.81
2023-01-11T01:18:44.966Z,101010.16
2023-01-11T01:23:48.469Z,101016.44
2023-01-11T01:28:51.996Z,101008.06
2023-01-11T01:33:56.874Z,101004.22
2023-01-11T01:39:01.524Z,101001.03
2023-01-11T01:44:07.549Z,101000.06
2023-01-11T01:49:16.787Z,101003.00
2023-01-11T01:54:24.389Z,100992.63
2023-01-11T01:59:29.848Z,100987.13
2023-01-11T02:04:37.446Z,100990.69
2023-01-11T02:09:45.909Z,100987.75
2023-01-11T02:14:50.721Z,100987.88
2023-01-11T02:19:59.385Z,100969.41
2023-01-11T02:25:41.114Z,100971.34
2023-01-11T02:30:53.954Z,100960.72
2023-01-11T02:36:07.683Z,100945.09
2023-01-11T02:41:21.578Z,100944.84
2023-01-11T02:46:33.557Z,100939.31
2023-01-11T02:51:44.310Z,100930.16
2023-01-11T02:56:50.622Z,100935.75
2023-01-11T03:01:56.223Z,100932.66
2023-01-11T03:07:16.743Z,100937.94
2023-01-11T03:12:55.016Z,100930.00
2023-01-11T03:18:13.378Z,100941.28
2023-01-11T03:23:22.469Z,100926.44
2023-01-11T03:28:36.688Z,100933.72
2023-01-11T03:33:48.273Z,100934.19
2023-01-11T03:38:57.453Z,100912.84
2023-01-11T03:44:02.913Z,100920.84
2023-01-11T03:49:14.485Z,100927.41
2023-01-11T03:54:24.653Z,100921.97
2023-01-11T03:59:29.111Z,100922.06
2023-01-11T04:04:33.896Z,100910.72
2023-01-11T04:09:38.342Z,100919.31
2023-01-11T04:14:41.801Z,100906.81
2023-01-11T04:19:46.894Z,100902.84
2023-01-11T04:24:50.403Z,100912.00
2023-01-11T04:29:53.988Z,100912.25
2023-01-11T04:34:58.875Z,100900.09
2023-01-11T04:40:02.742Z,100905.03
2023-01-11T04:45:08.167Z,100911.03
2023-01-11T04:50:13.925Z,100898.78
2023-01-11T04:55:17.509Z,100889.03
2023-01-11T05:00:21.437Z,100892.38
2023-01-11T05:05:26.216Z,100876.25
2023-01-11T05:10:29.960Z,100865.72
2023-01-11T05:15:33.542Z,100891.75
2023-01-11T05:20:38.668Z,100891.66
2023-01-11T05:25:42.209Z,100877.41
2023-01-11T05:30:45.803Z,100884.44
2023-01-11T05:35:50.865Z,100880.06
2023-01-11T05:40:58.789Z,100885.47
2023-01-11T05:46:02.683Z,100872.44
2023-01-11T05:51:07.837Z,100860.88
2023-01-11T05:56:11.410Z,100867.59
2023-01-11T06:01:14.866Z,100867.84
2023-01-11T06:06:21.104Z,100853.75
2023-01-11T06:11:24.967Z,100848.25
2023-01-11T06:16:28.684Z,100854.78
2023-01-11T06:21:33.746Z,100837.91
2023-01-11T06:26:37.337Z,100843.63
2023-01-11T06:31:40.988Z,100840.47
2023-01-11T06:36:46.086Z,100844.31
2023-01-11T06:41:49.686Z,100860.78
2023-01-11T06:46:53.449Z,100860.69
2023-01-11T06:51:58.433Z,100855.41
2023-01-11T06:57:02.141Z,100878.78
2023-01-11T07:02:05.712Z,100864.38
2023-01-11T07:07:10.732Z,100860.28
2023-01-11T07:12:14.349Z,100863.69
2023-01-11T07:17:17.931Z,100862.41
2023-01-11T07:22:23.786Z,100860.59
2023-01-11T07:27:27.398Z,100871.66
2023-01-11T07:32:30.859Z,100869.75
2023-01-11T07:37:38.984Z,100865.13
2023-01-11T07:42:59.689Z,100860.44
2023-01-11T07:48:04.337Z,100853.25
2023-01-11T07:53:10.098Z,100856.69
2023-01-11T07:58:14.790Z,100856.09
2023-01-11T08:03:18.191Z,100863.38
2023-01-11T08:08:23.571Z,100847.22
2023-01-11T08:13:44.219Z,100849.28
2023-01-11T08:18:47.866Z,100850.06
2023-01-11T08:23:54.784Z,100842.06
2023-01-11T08:28:58.412Z,100838.47
2023-01-11T08:34:01.944Z,100821.72
2023-01-11T08:39:07.142Z,100809.56
2023-01-11T08:44:14.688Z,100800.53
2023-01-11T08:49:18.570Z,100805.88
2023-01-11T08:54:23.685Z,100808.22
2023-01-11T08:59:27.332Z,100790.59
2023-01-11T09:04:30.807Z,100785.41
2023-01-11T09:09:37.292Z,100788.50
2023-01-11T09:14:40.774Z,100772.63
2023-01-11T09:19:44.517Z,100778.28
2023-01-11T09:24:49.281Z,100774.13
2023-01-11T09:29:53.237Z,100774.41
2023-01-11T09:34:58.330Z,100772.22
2023-01-11T09:40:03.737Z,100752.50
2023-01-11T09:45:16.029Z,100743.13
2023-01-11T09:50:23.996Z,100741.53
2023-01-11T09:55:34.903Z,100739.50
2023-01-11T10:00:52.001Z,100739.25
2023-01-11T10:06:09.219Z,100743.31
2023-01-11T10:18:37.855Z,100719.56
2023-01-11T10:22:31.793Z,100725.59
2023-01-11T10:27:40.714Z,100691.81
2023-01-11T10:33:06.019Z,100684.34
2023-01-11T10:38:41.293Z,100687.28
2023-01-11T10:43:50.855Z,100679.00
2023-01-11T10:49:04.980Z,100679.44
2023-01-11T10:54:16.951Z,100667.44
2023-01-11T10:59:39.890Z,100660.28
2023-01-11T11:04:58.732Z,100642.28
2023-01-11T11:10:12.475Z,100649.16
2023-01-11T11:15:25.548Z,100650.34
2023-01-11T11:20:33.647Z,100634.56
2023-01-11T11:25:40.050Z,100627.53
2023-01-11T11:30:48.621Z,100637.19
2023-01-11T11:35:58.093Z,100624.38
2023-01-11T11:41:08.563Z,100630.47
2023-01-11T11:46:26.660Z,100619.84
2023-01-11T11:51:30.306Z,100622.75
2023-01-11T11:56:37.820Z,100633.75
2023-01-11T12:01:47.178Z,100623.09
2023-01-11T12:07:06.037Z,100609.56
2023-01-11T12:12:16.041Z,100602.97
2023-01-11T12:17:26.764Z,100621.66
2023-01-11T12:22:30.699Z,100606.25
2023-01-11T12:27:42.265Z,100618.81
2023-01-11T12:33:21.249Z,100611.59
2023-01-11T12:38:44.670Z,100615.59
2023-01-11T12:44:00.276Z,100606.41
2023-01-11T12:49:20.117Z,100602.28
2023-01-11T12:54:39.854Z,100604.69
2023-01-11T13:00:12.155Z,100610.59
2023-01-11T13:05:24.774Z,100598.44
2023-01-11T13:10:38.333Z,100601.59
2023-01-11T13:21:25.850Z,100603.81
2023-01-11T13:26:35.484Z,100605.13
2023-01-11T13:31:39.868Z,100606.34
2023-01-11T13:36:47.160Z,100610.16
2023-01-11T13:41:56.691Z,100611.94
2023-01-11T13:47:07.666Z,100598.94
2023-01-11T13:52:15.080Z,100610.16
2023-01-11T13:57:26.400Z,100590.03
2023-01-11T14:02:38.666Z,100593.88
2023-01-11T14:08:01.116Z,100586.91
2023-01-11T14:13:42.970Z,100584.41
2023-01-11T14:18:55.216Z,100573.91
2023-01-11T14:23:59.733Z,100599.94
2023-01-11T14:29:28.654Z,100568.88
2023-01-11T14:35:13.335Z,100592.97
2023-01-11T14:40:49.844Z,100604.97
2023-01-11T14:46:16.362Z,100600.88
2023-01-11T14:51:33.635Z,100589.28
2023-01-11T14:56:49.415Z,100584.25
2023-01-11T15:02:28.460Z,100585.25
2023-01-11T15:07:38.002Z,100590.25
2023-01-11T15:12:42.442Z,100586.75
2023-01-11T15:18:07.792Z,100576.16
2023-01-11T15:23:17.630Z,100598.13
2023-01-11T15:28:44.849Z,100529.28
2023-01-11T15:33:51.160Z,100592.59
2023-01-11T15:39:01.576Z,100588.75
2023-01-11T15:44:36.620Z,100599.75
2023-01-11T15:49:54.817Z,100607.44
2023-01-11T15:55:25.960Z,100596.88
2023-01-11T16:01:04.476Z,100566.09
2023-01-11T16:06:17.845Z,100574.03
2023-01-11T16:11:33.715Z,100570.69
2023-01-11T16:16:41.638Z,100550.44
2023-01-11T16:21:49.611Z,100548.03
2023-01-11T16:26:58.836Z,100570.69
2023-01-11T16:32:04.921Z,100551.34
2023-01-11T16:37:23.513Z,100532.72
2023-01-11T16:42:31.742Z,100525.19
2023-01-11T16:47:35.539Z,100541.03
2023-01-11T16:52:49.841Z,100529.81
2023-01-11T16:57:58.957Z,100533.31
2023-01-11T17:03:13.528Z,100524.59
2023-01-11T17:08:26.206Z,100529.66
2023-01-11T17:14:02.943Z,100525.56
2023-01-11T17:19:10.100Z,100519.28
2023-01-11T17:24:15.639Z,100500.84
2023-01-11T17:29:28.852Z,100491.97
2023-01-11T17:34:35.090Z,100488.66
2023-01-11T17:39:41.106Z,100490.50
2023-01-11T17:45:05.368Z,100488.38
2023-01-11T17:50:22.222Z,100493.75
2023-01-11T17:55:28.513Z,100481.31
2023-01-11T18:00:33.613Z,100490.06
2023-01-11T18:05:37.546Z,100496.28
2023-01-11T18:10:45.045Z,100506.56
2023-01-11T18:15:50.077Z,100502.38
2023-01-11T18:20:53.780Z,100498.91
2023-01-11T18:26:25.513Z,100499.16
2023-01-11T18:31:30.824Z,100502.50
2023-01-11T18:36:34.717Z,100499.88
2023-01-11T18:41:56.451Z,100507.13
2023-01-11T18:47:01.657Z,100503.16
2023-01-11T18:52:05.978Z,100505.28
2023-01-11T18:57:09.972Z,100505.28
2023-01-11T19:02:21.643Z,100505.16
2023-01-11T19:07:26.453Z,100507.69
2023-01-11T19:12:29.927Z,100481.72
2023-01-11T19:17:35.021Z,100486.66
2023-01-11T19:22:38.794Z,100495.47
2023-01-11T19:27:42.615Z,100487.63
2023-01-11T19:32:52.002Z,100487.22
2023-01-11T19:37:55.581Z,100483.91
2023-01-11T19:43:00.111Z,100488.69
2023-01-11T19:48:05.587Z,100479.28
2023-01-11T19:53:09.008Z,100484.31
2023-01-11T19:58:12.624Z,100488.34
2023-01-11T20:03:17.352Z,100483.63
2023-01-11T20:08:22.633Z,100473.16
2023-01-11T20:13:26.133Z,100470.63
2023-01-11T20:18:31.211Z,100454.41
2023-01-11T20:23:34.990Z,100463.69
2023-01-11T20:28:38.581Z,100456.84
2023-01-11T20:33:43.473Z,100452.38
2023-01-11T20:38:47.297Z,100459.16
2023-01-11T20:43:50.611Z,100459.50
2023-01-11T20:48:55.772Z,100458.13
2023-01-11T20:53:59.285Z,100461.47
2023-01-11T20:59:03.662Z,100459.56
2023-01-11T21:04:10.599Z,100445.94
2023-01-11T21:09:16.096Z,100459.00
2023-01-11T21:14:19.566Z,100448.19
2023-01-11T21:19:27.662Z,100456.88
2023-01-11T21:24:31.312Z,100444.25
2023-01-11T21:29:35.000Z,100448.69
2023-01-11T21:34:39.877Z,100442.22
2023-01-11T21:39:43.424Z,100447.66
2023-01-11T21:44:46.949Z,100433.38
2023-01-11T21:49:52.041Z,100438.81
2023-01-11T21:54:55.464Z,100432.25
2023-01-11T21:59:59.004Z,100435.19
2023-01-11T22:05:03.803Z,100434.81
2023-01-11T22:10:07.797Z,100430.63
2023-01-11T22:15:12.034Z,100431.38
2023-01-11T22:20:17.750Z,100420.88
2023-01-11T22:25:21.053Z,100425.16
2023-01-11T22:30:24.767Z,100416.72
2023-01-11T22:35:31.221Z,100408.41
2023-01-11T22:40:34.844Z,100408.31
2023-01-11T22:45:38.340Z,100403.44
2023-01-11T22:50:43.429Z,100400.88
2023-01-11T22:55:46.920Z,100382.13
2023-01-11T23:00:50.282Z,100371.09
2023-01-11T23:05:55.042Z,100371.13
2023-01-11T23:11:00.452Z,100372.34
2023-01-11T23:16:03.938Z,100363.91
2023-01-11T23:21:08.967Z,100354.59
2023-01-11T23:26:13.128Z,100359.78
2023-01-11T23:31:19.029Z,100361.09
2023-01-11T23:36:25.792Z,100362.38
2023-01-11T23:41:46.900Z,100360.72
2023-01-11T23:47:23.955Z,100355.88
2023-01-11T23:52:31.303Z,100351.63
2023-01-11T23:57:34.841Z,100349.25
